La Suprema — IBIL — position and weather

sailwx.info

Track history (hours):
 
Tides and Currents Weather Stations Pressure Air Temp Water Temp Dewpoint Dewpoint Depression Visibility Wind Speed Wind Dir Waves Ship Positions

La Suprema

Last reported at 2015-Feb-27 00:33 UTC. Time now 2015-Feb-27 04:11 UTC.
Position N 38°35' E 013°07'.

Length 211 m; draft 7.3 m.

Type: Passenger vessel. MMSI: 247083700.

Date/timePositionNaut miles runAvg speedWind from/ knotsBaromVisibWave heightAir tempDewpointWater temp
2015-Feb-27 00:33N 38°35' E 013°07'2424.3
2015-Feb-26 23:34N 38°15' E 013°24'8 7.5
2015-Feb-26 22:33N 38°08' E 013°22'0 0.0
2015-Feb-26 21:33N 38°08' E 013°22'0 0.0
2015-Feb-26 20:33N 38°08' E 013°22'0 0.0
2015-Feb-26 19:32N 38°08' E 013°22'2 2.0
2015-Feb-26 18:34N 38°09' E 013°24'2322.5
2015-Feb-26 17:33N 38°29' E 013°11'29224.2
2015-Feb-26 05:29N 42°37' E 009°49'2623.9
2015-Feb-26 04:24N 43°02' E 009°38'2024.3
2015-Feb-26 03:34N 43°21' E 009°28'2524.6
2015-Feb-26 02:34N 43°44' E 009°15'2424.4
2015-Feb-26 01:34N 44°07' E 009°04'1918.5
2015-Feb-26 00:33N 44°25' E 008°55'0 0.0
2015-Feb-25 23:32N 44°25' E 008°55'0 0.0
2015-Feb-25 22:17N 44°25' E 008°55'0 0.0
2015-Feb-25 21:19N 44°25' E 008°55'0 0.0
2015-Feb-25 20:33N 44°25' E 008°55'1313.5
2015-Feb-25 19:33N 44°13' E 009°05'2424.0
2015-Feb-25 18:33N 43°52' E 009°21'2424.3
2015-Feb-25 17:34N 43°31' E 009°39'2424.1
2015-Feb-25 16:33N 43°10' E 009°55'30820.2
2015-Feb-25 01:19N 38°49' E 013°31'1418.3
2015-Feb-25 00:34N 38°35' E 013°30'1918.7
2015-Feb-24 23:34N 38°16' E 013°27'10 9.4
2015-Feb-24 22:32N 38°08' E 013°22'0 0.0
2015-Feb-24 21:32N 38°08' E 013°22'0 0.0
2015-Feb-24 20:31N 38°08' E 013°22'0 0.0
2015-Feb-24 19:31N 38°08' E 013°22'0 0.0
2015-Feb-24 18:33N 38°08' E 013°22'1 1.2
2015-Feb-24 17:33N 38°07' E 013°23'1515.3
2015-Feb-24 16:33N 38°22' E 013°23'1818.3
2015-Feb-24 15:33N 38°30' E 013°01'33023.6
2015-Feb-24 01:34N 43°18' E 009°29'2423.9
2015-Feb-24 00:34N 43°41' E 009°17'2423.7
2015-Feb-23 23:34N 44°03' E 009°05'2121.5
2015-Feb-23 22:34N 44°23' E 008°57'2 1.7
2015-Feb-23 21:33N 44°25' E 008°55'0 0.0
2015-Feb-23 20:26N 44°25' E 008°55'0 0.0
2015-Feb-23 19:32N 44°25' E 008°55'0 0.0
2015-Feb-23 18:32N 44°25' E 008°55'0 0.0
2015-Feb-23 17:25N 44°25' E 008°55'0 0.0
2015-Feb-23 16:25N 44°25' E 008°55'0 0.0
2015-Feb-23 15:30N 44°25' E 008°55'0 0.0
2015-Feb-23 14:30N 44°25' E 008°55'0 0.0
2015-Feb-23 13:23N 44°25' E 008°55'0 0.0
2015-Feb-23 12:11N 44°25' E 008°55'0 0.0
2015-Feb-23 11:13N 44°25' E 008°55'0 0.0
2015-Feb-23 10:22N 44°25' E 008°55'0 0.0
2015-Feb-23 09:28N 44°25' E 008°55'0 0.0
2015-Feb-23 08:21N 44°25' E 008°55'0 0.0
2015-Feb-23 07:33N 44°25' E 008°55'0 0.0
2015-Feb-23 06:29N 44°25' E 008°55'0 0.0
2015-Feb-23 05:32N 44°25' E 008°55'0 0.0
2015-Feb-23 04:31N 44°25' E 008°55'0 0.0
2015-Feb-23 03:25N 44°25' E 008°55'0 0.0
2015-Feb-23 02:28N 44°25' E 008°55'0 0.0
2015-Feb-23 01:33N 44°25' E 008°55'0 0.0
2015-Feb-23 00:30N 44°25' E 008°55'0 0.0
2015-Feb-22 23:29N 44°25' E 008°55'0 0.0
2015-Feb-22 22:29N 44°25' E 008°55'0 0.0
2015-Feb-22 21:28N 44°25' E 008°55'0 0.0
2015-Feb-22 20:28N 44°25' E 008°55'0 0.0
2015-Feb-22 19:28N 44°25' E 008°55'1 0.7
2015-Feb-22 18:33N 44°24' E 008°55'1716.6
2015-Feb-22 17:33N 44°10' E 009°07'2221.7
2015-Feb-22 16:33N 43°51' E 009°23'2120.8
2015-Feb-22 15:34N 43°33' E 009°37'2423.9
2015-Feb-22 14:33N 43°12' E 009°53'30923.8
2015-Feb-22 01:33N 38°38' E 013°03'2323.7
2015-Feb-22 00:34N 38°21' E 013°24'1312.4
2015-Feb-21 23:31N 38°08' E 013°22'0 0.0
2015-Feb-21 22:34N 38°08' E 013°22'0 0.0
2015-Feb-21 21:33N 38°08' E 013°22'0 0.0
2015-Feb-21 20:33N 38°08' E 013°22'0 0.0
2015-Feb-21 19:32N 38°08' E 013°22'0 0.2
2015-Feb-21 18:34N 38°08' E 013°22'1413.7
2015-Feb-21 17:33N 38°21' E 013°18'2221.5
2015-Feb-21 16:33N 38°39' E 013°03'28421.8
2015-Feb-21 03:33N 42°41' E 009°48'2423.6
2015-Feb-21 02:32N 43°04' E 009°37'2324.0
2015-Feb-21 01:34N 43°26' E 009°26'2424.0
2015-Feb-21 00:34N 43°48' E 009°12'2424.3
2015-Feb-20 23:34N 44°11' E 009°02'1514.5
2015-Feb-20 22:32N 44°25' E 008°55'0 0.0
2015-Feb-20 21:32N 44°25' E 008°55'0 0.0
2015-Feb-20 20:25N 44°25' E 008°55'0 0.0
2015-Feb-20 19:31N 44°25' E 008°55'0 0.0
2015-Feb-20 18:31N 44°25' E 008°55'7 7.3
2015-Feb-20 17:33N 44°19' E 009°00'2222.1
2015-Feb-20 16:33N 43°60' E 009°16'2322.8
2015-Feb-20 15:33N 43°40' E 009°32'2222.4
2015-Feb-20 14:33N 43°21' E 009°48'32821.8
2015-Feb-19 23:33N 38°31' E 013°09'2121.0
2015-Feb-19 22:33N 38°14' E 013°26'7 6.9
2015-Feb-19 21:31N 38°08' E 013°22'0 0.0
2015-Feb-19 20:31N 38°08' E 013°22'0 0.0
2015-Feb-19 19:33N 38°08' E 013°22'0 0.0
2015-Feb-19 18:33N 38°08' E 013°22'4 3.7
2015-Feb-19 17:34N 38°11' E 013°24'2221.8
2015-Feb-19 16:33N 38°33' E 013°21'29622.0
2015-Feb-19 03:09N 42°40' E 009°48'2223.8
2015-Feb-19 02:12N 43°01' E 009°38'1523.9
2015-Feb-19 01:34N 43°15' E 009°29'2424.3
2015-Feb-19 00:33N 43°38' E 009°18'2524.7
2015-Feb-18 23:34N 44°01' E 009°07'2323.3
2015-Feb-18 22:34N 44°23' E 008°56'1 1.4
2015-Feb-18 21:30N 44°25' E 008°55'0 0.0
2015-Feb-18 20:30N 44°25' E 008°55'0 0.0
2015-Feb-18 19:26N 44°25' E 008°55'0 0.0
2015-Feb-18 18:29N 44°25' E 008°55'1 1.3
2015-Feb-18 17:33N 44°24' E 008°56'1818.0
2015-Feb-18 16:33N 44°08' E 009°09'2221.9
2015-Feb-18 15:34N 43°49' E 009°25'2525.1
2015-Feb-18 14:34N 43°28' E 009°42'2424.3
2015-Feb-18 13:33N 43°07' E 009°59'31124.0
2015-Feb-18 00:33N 38°31' E 013°10'2424.1
2015-Feb-17 23:34N 38°10' E 013°26'4 4.2
2015-Feb-17 22:31N 38°08' E 013°22'0 0.0
2015-Feb-17 21:31N 38°08' E 013°22'0 0.0
2015-Feb-17 20:33N 38°08' E 013°22'0 0.0
2015-Feb-17 19:33N 38°08' E 013°22'3 1.7
2015-Feb-17 17:34N 38°10' E 013°24'2020.2
2015-Feb-17 16:34N 38°28' E 013°12'  
Track history (hours):
 
Tides and Currents Weather Stations Pressure Air Temp Water Temp Dewpoint Dewpoint Depression Visibility Wind Speed Wind Dir Waves Ship Positions

La Suprema

Last reported at 2015-Feb-27 00:33 UTC. Time now 2015-Feb-27 04:11 UTC.
Position N 38°35' E 013°07'.

Length 211 m; draft 7.3 m.

Type: Passenger vessel. MMSI: 247083700.

Date/timePositionNaut miles runAvg speedWind from/ knotsBaromVisibWave heightAir tempDewpointWater temp
2015-Feb-27 00:33N 38°35' E 013°07'2424.3
2015-Feb-26 23:34N 38°15' E 013°24'8 7.5
2015-Feb-26 22:33N 38°08' E 013°22'0 0.0
2015-Feb-26 21:33N 38°08' E 013°22'0 0.0
2015-Feb-26 20:33N 38°08' E 013°22'0 0.0
2015-Feb-26 19:32N 38°08' E 013°22'2 2.0
2015-Feb-26 18:34N 38°09' E 013°24'2322.5
2015-Feb-26 17:33N 38°29' E 013°11'29224.2
2015-Feb-26 05:29N 42°37' E 009°49'2623.9
2015-Feb-26 04:24N 43°02' E 009°38'2024.3
2015-Feb-26 03:34N 43°21' E 009°28'2524.6
2015-Feb-26 02:34N 43°44' E 009°15'2424.4
2015-Feb-26 01:34N 44°07' E 009°04'1918.5
2015-Feb-26 00:33N 44°25' E 008°55'0 0.0
2015-Feb-25 23:32N 44°25' E 008°55'0 0.0
2015-Feb-25 22:17N 44°25' E 008°55'0 0.0
2015-Feb-25 21:19N 44°25' E 008°55'0 0.0
2015-Feb-25 20:33N 44°25' E 008°55'1313.5
2015-Feb-25 19:33N 44°13' E 009°05'2424.0
2015-Feb-25 18:33N 43°52' E 009°21'2424.3
2015-Feb-25 17:34N 43°31' E 009°39'2424.1
2015-Feb-25 16:33N 43°10' E 009°55'30820.2
2015-Feb-25 01:19N 38°49' E 013°31'1418.3
2015-Feb-25 00:34N 38°35' E 013°30'1918.7
2015-Feb-24 23:34N 38°16' E 013°27'10 9.4
2015-Feb-24 22:32N 38°08' E 013°22'0 0.0
2015-Feb-24 21:32N 38°08' E 013°22'0 0.0
2015-Feb-24 20:31N 38°08' E 013°22'0 0.0
2015-Feb-24 19:31N 38°08' E 013°22'0 0.0
2015-Feb-24 18:33N 38°08' E 013°22'1 1.2
2015-Feb-24 17:33N 38°07' E 013°23'1515.3
2015-Feb-24 16:33N 38°22' E 013°23'1818.3
2015-Feb-24 15:33N 38°30' E 013°01'33023.6
2015-Feb-24 01:34N 43°18' E 009°29'2423.9
2015-Feb-24 00:34N 43°41' E 009°17'2423.7
2015-Feb-23 23:34N 44°03' E 009°05'2121.5
2015-Feb-23 22:34N 44°23' E 008°57'2 1.7
2015-Feb-23 21:33N 44°25' E 008°55'0 0.0
2015-Feb-23 20:26N 44°25' E 008°55'0 0.0
2015-Feb-23 19:32N 44°25' E 008°55'0 0.0
2015-Feb-23 18:32N 44°25' E 008°55'0 0.0
2015-Feb-23 17:25N 44°25' E 008°55'0 0.0
2015-Feb-23 16:25N 44°25' E 008°55'0 0.0
2015-Feb-23 15:30N 44°25' E 008°55'0 0.0
2015-Feb-23 14:30N 44°25' E 008°55'0 0.0
2015-Feb-23 13:23N 44°25' E 008°55'0 0.0
2015-Feb-23 12:11N 44°25' E 008°55'0 0.0
2015-Feb-23 11:13N 44°25' E 008°55'0 0.0
2015-Feb-23 10:22N 44°25' E 008°55'0 0.0
2015-Feb-23 09:28N 44°25' E 008°55'0 0.0
2015-Feb-23 08:21N 44°25' E 008°55'0 0.0
2015-Feb-23 07:33N 44°25' E 008°55'0 0.0
2015-Feb-23 06:29N 44°25' E 008°55'0 0.0
2015-Feb-23 05:32N 44°25' E 008°55'0 0.0
2015-Feb-23 04:31N 44°25' E 008°55'0 0.0
2015-Feb-23 03:25N 44°25' E 008°55'0 0.0
2015-Feb-23 02:28N 44°25' E 008°55'0 0.0
2015-Feb-23 01:33N 44°25' E 008°55'0 0.0
2015-Feb-23 00:30N 44°25' E 008°55'0 0.0
2015-Feb-22 23:29N 44°25' E 008°55'0 0.0
2015-Feb-22 22:29N 44°25' E 008°55'0 0.0
2015-Feb-22 21:28N 44°25' E 008°55'0 0.0
2015-Feb-22 20:28N 44°25' E 008°55'0 0.0
2015-Feb-22 19:28N 44°25' E 008°55'1 0.7
2015-Feb-22 18:33N 44°24' E 008°55'1716.6
2015-Feb-22 17:33N 44°10' E 009°07'2221.7
2015-Feb-22 16:33N 43°51' E 009°23'2120.8
2015-Feb-22 15:34N 43°33' E 009°37'2423.9
2015-Feb-22 14:33N 43°12' E 009°53'30923.8
2015-Feb-22 01:33N 38°38' E 013°03'2323.7
2015-Feb-22 00:34N 38°21' E 013°24'1312.4
2015-Feb-21 23:31N 38°08' E 013°22'0 0.0
2015-Feb-21 22:34N 38°08' E 013°22'0 0.0
2015-Feb-21 21:33N 38°08' E 013°22'0 0.0
2015-Feb-21 20:33N 38°08' E 013°22'0 0.0
2015-Feb-21 19:32N 38°08' E 013°22'0 0.2
2015-Feb-21 18:34N 38°08' E 013°22'1413.7
2015-Feb-21 17:33N 38°21' E 013°18'2221.5
2015-Feb-21 16:33N 38°39' E 013°03'28421.8
2015-Feb-21 03:33N 42°41' E 009°48'2423.6
2015-Feb-21 02:32N 43°04' E 009°37'2324.0
2015-Feb-21 01:34N 43°26' E 009°26'2424.0
2015-Feb-21 00:34N 43°48' E 009°12'2424.3
2015-Feb-20 23:34N 44°11' E 009°02'1514.5
2015-Feb-20 22:32N 44°25' E 008°55'0 0.0
2015-Feb-20 21:32N 44°25' E 008°55'0 0.0
2015-Feb-20 20:25N 44°25' E 008°55'0 0.0
2015-Feb-20 19:31N 44°25' E 008°55'0 0.0
2015-Feb-20 18:31N 44°25' E 008°55'7 7.3
2015-Feb-20 17:33N 44°19' E 009°00'2222.1
2015-Feb-20 16:33N 43°60' E 009°16'2322.8
2015-Feb-20 15:33N 43°40' E 009°32'2222.4
2015-Feb-20 14:33N 43°21' E 009°48'32821.8
2015-Feb-19 23:33N 38°31' E 013°09'2121.0
2015-Feb-19 22:33N 38°14' E 013°26'7 6.9
2015-Feb-19 21:31N 38°08' E 013°22'0 0.0
2015-Feb-19 20:31N 38°08' E 013°22'0 0.0
2015-Feb-19 19:33N 38°08' E 013°22'0 0.0
2015-Feb-19 18:33N 38°08' E 013°22'4 3.7
2015-Feb-19 17:34N 38°11' E 013°24'2221.8
2015-Feb-19 16:33N 38°33' E 013°21'29622.0
2015-Feb-19 03:09N 42°40' E 009°48'2223.8
2015-Feb-19 02:12N 43°01' E 009°38'1523.9
2015-Feb-19 01:34N 43°15' E 009°29'2424.3
2015-Feb-19 00:33N 43°38' E 009°18'2524.7
2015-Feb-18 23:34N 44°01' E 009°07'2323.3
2015-Feb-18 22:34N 44°23' E 008°56'1 1.4
2015-Feb-18 21:30N 44°25' E 008°55'0 0.0
2015-Feb-18 20:30N 44°25' E 008°55'0 0.0
2015-Feb-18 19:26N 44°25' E 008°55'0 0.0
2015-Feb-18 18:29N 44°25' E 008°55'1 1.3
2015-Feb-18 17:33N 44°24' E 008°56'1818.0
2015-Feb-18 16:33N 44°08' E 009°09'2221.9
2015-Feb-18 15:34N 43°49' E 009°25'2525.1
2015-Feb-18 14:34N 43°28' E 009°42'2424.3
2015-Feb-18 13:33N 43°07' E 009°59'31124.0
2015-Feb-18 00:33N 38°31' E 013°10'2424.1
2015-Feb-17 23:34N 38°10' E 013°26'4 4.2
2015-Feb-17 22:31N 38°08' E 013°22'0 0.0
2015-Feb-17 21:31N 38°08' E 013°22'0 0.0
2015-Feb-17 20:33N 38°08' E 013°22'0 0.0
2015-Feb-17 19:33N 38°08' E 013°22'3 1.7
2015-Feb-17 17:34N 38°10' E 013°24'2020.2
2015-Feb-17 16:34N 38°28' E 013°12'  

Dump ship's entire track history